sensor_id;sensor_type;location;lat;lon;timestamp;pressure;altitude;pressure_sealevel;temperature;humidity
75146;BME280;63641;46.526;24.612;2024-03-08T13:16:08;97427.84;;;10.54;42.76
75146;BME280;63641;46.526;24.612;2024-03-08T13:18:36;97428.16;;;10.47;42.91
75146;BME280;63641;46.526;24.612;2024-03-08T13:21:05;97420.84;;;10.48;43.12
75146;BME280;63641;46.526;24.612;2024-03-08T13:23:34;97422.75;;;10.47;42.88
75146;BME280;63641;46.526;24.612;2024-03-08T13:26:07;97433.28;;;10.54;43.12
75146;BME280;63641;46.526;24.612;2024-03-08T13:28:34;97427.31;;;10.57;43.04
75146;BME280;63641;46.526;24.612;2024-03-08T13:31:04;97431.63;;;10.58;43.08
75146;BME280;63641;46.526;24.612;2024-03-08T13:33:37;97428.66;;;10.54;43.16
75146;BME280;63641;46.526;24.612;2024-03-08T13:36:06;97427.84;;;10.54;43.17
75146;BME280;63641;46.526;24.612;2024-03-08T13:38:42;97420.31;;;10.46;43.15
75146;BME280;63641;46.526;24.612;2024-03-08T13:41:10;97416.03;;;10.39;43.04
75146;BME280;63641;46.526;24.612;2024-03-08T13:43:38;97420.41;;;10.20;43.22
75146;BME280;63641;46.526;24.612;2024-03-08T13:46:06;97432.56;;;10.12;43.32
75146;BME280;63641;46.526;24.612;2024-03-08T13:48:33;97429.09;;;10.07;43.44
75146;BME280;63641;46.526;24.612;2024-03-08T13:51:00;97433.16;;;10.09;43.53
75146;BME280;63641;46.526;24.612;2024-03-08T13:53:27;97416.91;;;10.04;43.61
75146;BME280;63641;46.526;24.612;2024-03-08T13:55:54;97410.72;;;10.09;43.44
75146;BME280;63641;46.526;24.612;2024-03-08T13:58:21;97416.94;;;10.09;43.29
75146;BME280;63641;46.526;24.612;2024-03-08T14:00:48;97420.94;;;10.12;43.14
75146;BME280;63641;46.526;24.612;2024-03-08T14:03:15;97415.00;;;10.15;43.20
75146;BME280;63641;46.526;24.612;2024-03-08T14:05:42;97403.66;;;10.13;43.07
75146;BME280;63641;46.526;24.612;2024-03-08T14:08:09;97423.91;;;10.21;43.22
75146;BME280;63641;46.526;24.612;2024-03-08T14:10:38;97408.81;;;10.09;43.46
75146;BME280;63641;46.526;24.612;2024-03-08T14:13:05;97417.19;;;10.13;43.47
75146;BME280;63641;46.526;24.612;2024-03-08T14:15:34;97413.16;;;10.05;43.73
75146;BME280;63641;46.526;24.612;2024-03-08T14:18:01;97416.63;;;10.11;43.81
75146;BME280;63641;46.526;24.612;2024-03-08T14:20:28;97402.09;;;10.02;43.94
75146;BME280;63641;46.526;24.612;2024-03-08T14:22:55;97374.56;;;9.79;44.08
75146;BME280;63641;46.526;24.612;2024-03-08T14:25:23;97417.97;;;10.08;44.29
75146;BME280;63641;46.526;24.612;2024-03-08T14:27:52;97409.06;;;10.08;44.07
75146;BME280;63641;46.526;24.612;2024-03-08T14:36:19;97403.72;;;9.92;44.51
75146;BME280;63641;46.526;24.612;2024-03-08T14:38:47;97333.88;;;9.40;44.74
75146;BME280;63641;46.526;24.612;2024-03-08T14:41:13;97406.69;;;9.86;44.84
75146;BME280;63641;46.526;24.612;2024-03-08T14:43:44;97380.81;;;9.64;44.76
75146;BME280;63641;46.526;24.612;2024-03-08T14:46:15;97406.47;;;9.77;44.90
75146;BME280;63641;46.526;24.612;2024-03-08T14:48:46;97401.88;;;9.78;44.82
75146;BME280;63641;46.526;24.612;2024-03-08T14:51:18;97392.97;;;9.72;45.14
75146;BME280;63641;46.526;24.612;2024-03-08T14:53:48;97364.91;;;9.53;44.89
75146;BME280;63641;46.526;24.612;2024-03-08T14:56:16;97379.75;;;9.65;44.95
75146;BME280;63641;46.526;24.612;2024-03-08T14:58:44;97402.69;;;9.83;45.04
75146;BME280;63641;46.526;24.612;2024-03-08T15:01:11;97388.66;;;9.76;45.17
75146;BME280;63641;46.526;24.612;2024-03-08T15:03:40;97396.19;;;9.74;44.96
75146;BME280;63641;46.526;24.612;2024-03-08T15:06:07;97395.69;;;9.67;45.54
75146;BME280;63641;46.526;24.612;2024-03-08T15:08:38;97386.50;;;9.63;45.68
75146;BME280;63641;46.526;24.612;2024-03-08T15:11:06;97405.13;;;9.75;45.74
75146;BME280;63641;46.526;24.612;2024-03-08T15:13:33;97383.28;;;9.56;45.59
75146;BME280;63641;46.526;24.612;2024-03-08T15:16:08;97397.59;;;9.56;45.87
75146;BME280;63641;46.526;24.612;2024-03-08T15:18:41;97397.06;;;9.49;45.81
75146;BME280;63641;46.526;24.612;2024-03-08T15:21:17;97393.03;;;9.47;45.88
75146;BME280;63641;46.526;24.612;2024-03-08T15:23:46;97410.53;;;9.59;45.90
75146;BME280;63641;46.526;24.612;2024-03-08T15:26:19;97321.50;;;9.03;45.90
75146;BME280;63641;46.526;24.612;2024-03-08T15:28:45;97420.56;;;9.54;46.24
75146;BME280;63641;46.526;24.612;2024-03-08T15:31:13;97416.22;;;9.53;46.10
75146;BME280;63641;46.526;24.612;2024-03-08T15:33:40;97391.69;;;9.29;46.34
75146;BME280;63641;46.526;24.612;2024-03-08T15:36:11;97415.44;;;9.37;46.21
75146;BME280;63641;46.526;24.612;2024-03-08T15:38:41;97421.94;;;9.36;46.51
75146;BME280;63641;46.526;24.612;2024-03-08T15:41:10;97393.03;;;9.16;46.62
75146;BME280;63641;46.526;24.612;2024-03-08T15:43:38;97425.97;;;9.28;46.53
75146;BME280;63641;46.526;24.612;2024-03-08T15:46:07;97418.13;;;9.22;46.53
75146;BME280;63641;46.526;24.612;2024-03-08T15:48:35;97432.19;;;9.29;46.62
75146;BME280;63641;46.526;24.612;2024-03-08T15:51:02;97435.94;;;9.23;46.59
75146;BME280;63641;46.526;24.612;2024-03-08T15:53:38;97437.28;;;9.20;46.68
75146;BME280;63641;46.526;24.612;2024-03-08T15:56:05;97437.03;;;9.16;46.80
75146;BME280;63641;46.526;24.612;2024-03-08T15:58:34;97432.41;;;9.02;47.00
75146;BME280;63641;46.526;24.612;2024-03-08T16:01:05;97436.47;;;8.99;47.18
75146;BME280;63641;46.526;24.612;2024-03-08T16:03:33;97436.47;;;8.99;47.00
75146;BME280;63641;46.526;24.612;2024-03-08T16:06:00;97435.69;;;8.99;47.18
75146;BME280;63641;46.526;24.612;2024-03-08T16:08:27;97433.25;;;9.02;47.29
75146;BME280;63641;46.526;24.612;2024-03-08T16:10:54;97445.91;;;8.97;47.44
75146;BME280;63641;46.526;24.612;2024-03-08T16:13:23;97434.84;;;8.88;47.72
75146;BME280;63641;46.526;24.612;2024-03-08T16:15:52;97428.34;;;8.74;47.88
75146;BME280;63641;46.526;24.612;2024-03-08T16:18:21;97441.84;;;8.79;48.01
75146;BME280;63641;46.526;24.612;2024-03-08T16:20:49;97431.56;;;8.65;48.31
75146;BME280;63641;46.526;24.612;2024-03-08T16:23:17;97388.00;;;8.31;48.46
75146;BME280;63641;46.526;24.612;2024-03-08T16:25:44;97447.19;;;8.68;48.45
75146;BME280;63641;46.526;24.612;2024-03-08T16:28:12;97444.75;;;8.57;48.69
75146;BME280;63641;46.526;24.612;2024-03-08T16:30:44;97429.09;;;8.54;48.95
75146;BME280;63641;46.526;24.612;2024-03-08T16:33:21;97423.97;;;8.47;48.73
75146;BME280;63641;46.526;24.612;2024-03-08T16:35:49;97446.91;;;8.60;48.90
75146;BME280;63641;46.526;24.612;2024-03-08T16:38:18;97449.91;;;8.63;48.91
75146;BME280;63641;46.526;24.612;2024-03-08T16:40:46;97439.06;;;8.53;49.48
75146;BME280;63641;46.526;24.612;2024-03-08T16:43:15;97437.97;;;8.49;49.79
75146;BME280;63641;46.526;24.612;2024-03-08T16:45:42;97419.88;;;8.39;50.10
75146;BME280;63641;46.526;24.612;2024-03-08T16:48:10;97433.34;;;8.39;50.60
75146;BME280;63641;46.526;24.612;2024-03-08T16:50:37;97435.47;;;8.32;50.87
75146;BME280;63641;46.526;24.612;2024-03-08T16:53:04;97442.47;;;8.33;51.34
75146;BME280;63641;46.526;24.612;2024-03-08T16:55:31;97451.38;;;8.34;51.62
75146;BME280;63641;46.526;24.612;2024-03-08T16:58:00;97433.25;;;8.14;51.87
75146;BME280;63641;46.526;24.612;2024-03-08T17:00:27;97447.25;;;8.21;52.23
75146;BME280;63641;46.526;24.612;2024-03-08T17:02:55;97444.78;;;8.09;52.29
75146;BME280;63641;46.526;24.612;2024-03-08T17:05:25;97429.91;;;7.96;52.50
75146;BME280;63641;46.526;24.612;2024-03-08T17:08:00;97451.25;;;8.03;52.87
75146;BME280;63641;46.526;24.612;2024-03-08T17:10:28;97448.50;;;7.98;53.04
75146;BME280;63641;46.526;24.612;2024-03-08T17:12:56;97455.78;;;7.97;53.30
75146;BME280;63641;46.526;24.612;2024-03-08T17:15:30;97451.69;;;7.90;53.70
75146;BME280;63641;46.526;24.612;2024-03-08T17:18:02;97444.94;;;7.87;53.61
75146;BME280;63641;46.526;24.612;2024-03-08T17:20:38;97451.13;;;7.83;53.67
75146;BME280;63641;46.526;24.612;2024-03-08T17:23:08;97440.53;;;7.71;53.96
75146;BME280;63641;46.526;24.612;2024-03-08T17:25:39;97434.00;;;7.62;54.04
75146;BME280;63641;46.526;24.612;2024-03-08T17:28:06;97451.03;;;7.72;54.11
75146;BME280;63641;46.526;24.612;2024-03-08T17:30:35;97447.25;;;7.68;54.22
75146;BME280;63641;46.526;24.612;2024-03-08T17:33:07;97452.09;;;7.66;54.36
75146;BME280;63641;46.526;24.612;2024-03-08T17:35:42;97454.53;;;7.68;54.89
75146;BME280;63641;46.526;24.612;2024-03-08T17:38:11;97448.25;;;7.57;55.20
75146;BME280;63641;46.526;24.612;2024-03-08T17:40:42;97460.41;;;7.65;55.51
75146;BME280;63641;46.526;24.612;2024-03-08T17:43:11;97459.06;;;7.62;55.48
75146;BME280;63641;46.526;24.612;2024-03-08T17:45:41;97465.00;;;7.64;55.70
75146;BME280;63641;46.526;24.612;2024-03-08T17:48:12;97419.53;;;7.31;55.61
75146;BME280;63641;46.526;24.612;2024-03-08T17:50:41;97439.28;;;7.46;56.00
75146;BME280;63641;46.526;24.612;2024-03-08T17:53:09;97453.91;;;7.56;55.83
75146;BME280;63641;46.526;24.612;2024-03-08T17:55:37;97464.91;;;7.54;56.10
75146;BME280;63641;46.526;24.612;2024-03-08T17:58:08;97447.34;;;7.41;56.14
75146;BME280;63641;46.526;24.612;2024-03-08T18:00:37;97452.50;;;7.48;56.40
75146;BME280;63641;46.526;24.612;2024-03-08T18:03:07;97462.75;;;7.51;56.15
75146;BME280;63641;46.526;24.612;2024-03-08T18:05:45;97452.44;;;7.43;56.23
75146;BME280;63641;46.526;24.612;2024-03-08T18:08:13;97444.13;;;7.44;56.48
75146;BME280;63641;46.526;24.612;2024-03-08T18:10:40;97452.44;;;7.38;56.57
75146;BME280;63641;46.526;24.612;2024-03-08T18:13:09;97460.22;;;7.39;56.63
75146;BME280;63641;46.526;24.612;2024-03-08T18:15:43;97448.88;;;7.32;56.86
75146;BME280;63641;46.526;24.612;2024-03-08T18:18:14;97470.25;;;7.44;56.85
75146;BME280;63641;46.526;24.612;2024-03-08T18:20:41;97465.88;;;7.38;56.78
75146;BME280;63641;46.526;24.612;2024-03-08T18:23:12;97468.88;;;7.41;56.99
75146;BME280;63641;46.526;24.612;2024-03-08T18:25:40;97473.16;;;7.37;57.27
75146;BME280;63641;46.526;24.612;2024-03-08T18:28:08;97452.91;;;7.30;57.39
75146;BME280;63641;46.526;24.612;2024-03-08T18:30:36;97455.03;;;7.28;57.51
75146;BME280;63641;46.526;24.612;2024-03-08T18:33:04;97469.28;;;7.28;57.70
75146;BME280;63641;46.526;24.612;2024-03-08T18:35:31;97455.00;;;7.22;57.71
75146;BME280;63641;46.526;24.612;2024-03-08T18:37:58;97474.44;;;7.30;58.19
75146;BME280;63641;46.526;24.612;2024-03-08T18:40:26;97467.09;;;7.25;58.13
75146;BME280;63641;46.526;24.612;2024-03-08T18:42:54;97466.59;;;7.28;58.35
75146;BME280;63641;46.526;24.612;2024-03-08T18:45:22;97475.75;;;7.27;58.37
75146;BME280;63641;46.526;24.612;2024-03-08T18:47:52;97460.84;;;7.14;58.36
75146;BME280;63641;46.526;24.612;2024-03-08T18:50:20;97468.16;;;7.19;58.40
75146;BME280;63641;46.526;24.612;2024-03-08T18:52:47;97463.00;;;7.17;58.13
75146;BME280;63641;46.526;24.612;2024-03-08T18:55:16;97466.50;;;7.18;58.13
75146;BME280;63641;46.526;24.612;2024-03-08T18:57:48;97472.97;;;7.17;58.22
75146;BME280;63641;46.526;24.612;2024-03-08T19:00:17;97480.22;;;7.16;58.31
75146;BME280;63641;46.526;24.612;2024-03-08T19:02:58;97469.16;;;7.13;58.45
75146;BME280;63641;46.526;24.612;2024-03-08T19:05:32;97473.47;;;7.14;58.30
75146;BME280;63641;46.526;24.612;2024-03-08T19:07:59;97469.66;;;7.10;58.64
75146;BME280;63641;46.526;24.612;2024-03-08T19:10:36;97464.19;;;6.99;58.93
75146;BME280;63641;46.526;24.612;2024-03-08T19:13:07;97472.31;;;7.05;58.83
75146;BME280;63641;46.526;24.612;2024-03-08T19:15:37;97467.94;;;6.98;59.14
75146;BME280;63641;46.526;24.612;2024-03-08T19:18:05;97463.91;;;6.96;58.96
75146;BME280;63641;46.526;24.612;2024-03-08T19:20:35;97478.78;;;7.04;59.01
75146;BME280;63641;46.526;24.612;2024-03-08T19:23:03;97461.47;;;6.94;59.02
75146;BME280;63641;46.526;24.612;2024-03-08T19:25:33;97487.34;;;7.00;59.23
75146;BME280;63641;46.526;24.612;2024-03-08T19:28:03;97481.41;;;6.98;59.45
75146;BME280;63641;46.526;24.612;2024-03-08T19:30:33;97468.41;;;6.90;59.67
75146;BME280;63641;46.526;24.612;2024-03-08T19:33:05;97470.53;;;6.88;59.79
75146;BME280;63641;46.526;24.612;2024-03-08T19:35:35;97474.28;;;6.87;59.64
75146;BME280;63641;46.526;24.612;2024-03-08T19:38:03;97477.50;;;6.84;59.65
75146;BME280;63641;46.526;24.612;2024-03-08T19:40:31;97482.38;;;6.87;59.76
75146;BME280;63641;46.526;24.612;2024-03-08T19:43:03;97486.13;;;6.86;59.66
75146;BME280;63641;46.526;24.612;2024-03-08T19:45:32;97476.38;;;6.80;59.53
75146;BME280;63641;46.526;24.612;2024-03-08T19:48:00;97489.81;;;6.80;59.53
75146;BME280;63641;46.526;24.612;2024-03-08T19:50:32;97476.88;;;6.77;59.28
75146;BME280;63641;46.526;24.612;2024-03-08T19:53:00;97473.03;;;6.68;59.70
75146;BME280;63641;46.526;24.612;2024-03-08T19:55:38;97482.47;;;6.70;59.73
75146;BME280;63641;46.526;24.612;2024-03-08T19:58:07;97490.59;;;6.75;59.99
75146;BME280;63641;46.526;24.612;2024-03-08T20:00:34;97487.31;;;6.73;59.91
75146;BME280;63641;46.526;24.612;2024-03-08T20:03:03;97469.44;;;6.62;59.77
75146;BME280;63641;46.526;24.612;2024-03-08T20:05:33;97490.53;;;6.70;59.72
75146;BME280;63641;46.526;24.612;2024-03-08T20:08:02;97482.97;;;6.67;59.98
75146;BME280;63641;46.526;24.612;2024-03-08T20:10:35;97485.91;;;6.66;59.98
75146;BME280;63641;46.526;24.612;2024-03-08T20:13:04;97489.09;;;6.63;60.17
75146;BME280;63641;46.526;24.612;2024-03-08T20:15:35;97487.72;;;6.60;60.06
75146;BME280;63641;46.526;24.612;2024-03-08T20:18:13;97493.91;;;6.61;60.08
75146;BME280;63641;46.526;24.612;2024-03-08T20:20:40;97482.84;;;6.57;60.16
75146;BME280;63641;46.526;24.612;2024-03-08T20:23:09;97490.41;;;6.60;60.29
75146;BME280;63641;46.526;24.612;2024-03-08T20:25:39;97464.66;;;6.42;60.17
75146;BME280;63641;46.526;24.612;2024-03-08T20:28:12;97486.84;;;6.54;60.18
75146;BME280;63641;46.526;24.612;2024-03-08T20:30:38;97488.19;;;6.52;60.63
75146;BME280;63641;46.526;24.612;2024-03-08T20:33:09;97472.78;;;6.47;60.81
75146;BME280;63641;46.526;24.612;2024-03-08T20:35:36;97472.25;;;6.45;60.90
75146;BME280;63641;46.526;24.612;2024-03-08T20:38:03;97481.41;;;6.49;61.08
75146;BME280;63641;46.526;24.612;2024-03-08T20:40:34;97482.22;;;6.50;61.25
75146;BME280;63641;46.526;24.612;2024-03-08T20:43:13;97475.72;;;6.46;61.15
75146;BME280;63641;46.526;24.612;2024-03-08T20:45:45;97477.84;;;6.44;61.75
75146;BME280;63641;46.526;24.612;2024-03-08T20:48:13;97458.03;;;6.28;61.73
75146;BME280;63641;46.526;24.612;2024-03-08T20:50:40;97481.09;;;6.46;61.81
75146;BME280;63641;46.526;24.612;2024-03-08T20:53:09;97470.03;;;6.42;62.17
75146;BME280;63641;46.526;24.612;2024-03-08T20:55:38;97471.13;;;6.41;62.13
75146;BME280;63641;46.526;24.612;2024-03-08T20:58:06;97476.53;;;6.46;62.13
75146;BME280;63641;46.526;24.612;2024-03-08T21:00:34;97470.53;;;6.39;62.47
75146;BME280;63641;46.526;24.612;2024-03-08T21:03:04;97457.25;;;6.27;62.60
75146;BME280;63641;46.526;24.612;2024-03-08T21:05:32;97479.19;;;6.41;62.74
75146;BME280;63641;46.526;24.612;2024-03-08T21:07:59;97472.41;;;6.39;62.81
75146;BME280;63641;46.526;24.612;2024-03-08T21:10:27;97474.31;;;6.38;62.85
75146;BME280;63641;46.526;24.612;2024-03-08T21:12:57;97484.56;;;6.41;62.87
75146;BME280;63641;46.526;24.612;2024-03-08T21:15:24;97470.50;;;6.34;63.05
75146;BME280;63641;46.526;24.612;2024-03-08T21:17:51;97469.91;;;6.32;62.88
75146;BME280;63641;46.526;24.612;2024-03-08T21:20:18;97489.03;;;6.36;63.43
75146;BME280;63641;46.526;24.612;2024-03-08T21:22:47;97481.47;;;6.33;63.28
75146;BME280;63641;46.526;24.612;2024-03-08T21:25:15;97478.06;;;6.37;63.26
75146;BME280;63641;46.526;24.612;2024-03-08T21:27:42;97474.03;;;6.40;63.16
75146;BME280;63641;46.526;24.612;2024-03-08T21:30:21;97475.38;;;6.37;63.26
75146;BME280;63641;46.526;24.612;2024-03-08T21:32:49;97461.84;;;6.32;63.34
75146;BME280;63641;46.526;24.612;2024-03-08T21:35:16;97467.22;;;6.32;63.35
75146;BME280;63641;46.526;24.612;2024-03-08T21:37:46;97474.78;;;6.35;63.62
75146;BME280;63641;46.526;24.612;2024-03-08T21:40:18;97473.19;;;6.34;63.71
75146;BME280;63641;46.526;24.612;2024-03-08T21:42:49;97474.78;;;6.35;63.67
75146;BME280;63641;46.526;24.612;2024-03-08T21:45:17;97471.22;;;6.29;63.96
75146;BME280;63641;46.526;24.612;2024-03-08T21:47:44;97470.94;;;6.26;63.66
75146;BME280;63641;46.526;24.612;2024-03-08T21:50:15;97469.28;;;6.25;63.88
75146;BME280;63641;46.526;24.612;2024-03-08T21:52:42;97475.25;;;6.27;63.88
75146;BME280;63641;46.526;24.612;2024-03-08T21:55:11;97468.97;;;6.21;64.28
75146;BME280;63641;46.526;24.612;2024-03-08T21:57:38;97474.94;;;6.23;64.08
75146;BME280;63641;46.526;24.612;2024-03-08T22:00:05;97467.94;;;6.22;64.08
75146;BME280;63641;46.526;24.612;2024-03-08T22:02:42;97476.31;;;6.26;64.17
75146;BME280;63641;46.526;24.612;2024-03-08T22:05:13;97477.94;;;6.27;64.15
75146;BME280;63641;46.526;24.612;2024-03-08T22:07:43;97474.94;;;6.23;64.42
75146;BME280;63641;46.526;24.612;2024-03-08T22:10:11;97457.59;;;6.14;64.31
75146;BME280;63641;46.526;24.612;2024-03-08T22:12:52;97473.31;;;6.22;64.33
75146;BME280;63641;46.526;24.612;2024-03-08T22:15:21;97466.56;;;6.20;64.33
75146;BME280;63641;46.526;24.612;2024-03-08T22:17:49;97464.41;;;6.22;64.35
75146;BME280;63641;46.526;24.612;2024-03-08T22:20:19;97466.56;;;6.20;64.63
75146;BME280;63641;46.526;24.612;2024-03-08T22:22:54;97471.13;;;6.19;64.83
75146;BME280;63641;46.526;24.612;2024-03-08T22:25:22;97459.25;;;6.15;64.68
75146;BME280;63641;46.526;24.612;2024-03-08T22:27:49;97471.13;;;6.19;64.74
75146;BME280;63641;46.526;24.612;2024-03-08T22:30:19;97470.53;;;6.17;64.59
75146;BME280;63641;46.526;24.612;2024-03-08T22:32:46;97475.38;;;6.15;64.93
75146;BME280;63641;46.526;24.612;2024-03-08T22:35:14;97469.16;;;6.15;64.88
75146;BME280;63641;46.526;24.612;2024-03-08T22:37:41;97480.97;;;6.14;65.08
75146;BME280;63641;46.526;24.612;2024-03-08T22:40:10;97462.03;;;6.03;64.90
75146;BME280;63641;46.526;24.612;2024-03-08T22:42:45;97484.72;;;6.13;64.87
75146;BME280;63641;46.526;24.612;2024-03-08T22:45:12;97483.09;;;6.12;65.19
75146;BME280;63641;46.526;24.612;2024-03-08T22:47:40;97474.72;;;6.08;65.23
75146;BME280;63641;46.526;24.612;2024-03-08T22:50:12;97479.84;;;6.10;65.04
75146;BME280;63641;46.526;24.612;2024-03-08T22:52:40;97480.91;;;6.09;65.20
75146;BME280;63641;46.526;24.612;2024-03-08T22:55:07;97474.97;;;6.07;65.25
75146;BME280;63641;46.526;24.612;2024-03-08T22:57:35;97479.78;;;6.04;65.34
75146;BME280;63641;46.526;24.612;2024-03-08T23:00:07;97470.09;;;6.03;65.49
75146;BME280;63641;46.526;24.612;2024-03-08T23:02:51;97459.78;;;5.95;65.43
75146;BME280;63641;46.526;24.612;2024-03-08T23:05:19;97474.81;;;5.96;65.33
75146;BME280;63641;46.526;24.612;2024-03-08T23:07:46;97470.50;;;5.95;65.44
75146;BME280;63641;46.526;24.612;2024-03-08T23:10:12;97451.00;;;5.83;65.45
75146;BME280;63641;46.526;24.612;2024-03-08T23:12:40;97468.81;;;5.89;65.74
75146;BME280;63641;46.526;24.612;2024-03-08T23:15:07;97466.13;;;5.89;65.82
75146;BME280;63641;46.526;24.612;2024-03-08T23:17:45;97460.34;;;5.80;65.85
75146;BME280;63641;46.526;24.612;2024-03-08T23:20:19;97458.72;;;5.79;65.94
75146;BME280;63641;46.526;24.612;2024-03-08T23:22:48;97467.53;;;5.75;66.32
75146;BME280;63641;46.526;24.612;2024-03-08T23:25:20;97477.75;;;5.78;66.43
75146;BME280;63641;46.526;24.612;2024-03-08T23:27:57;97468.56;;;5.74;66.13
75146;BME280;63641;46.526;24.612;2024-03-08T23:30:24;97472.38;;;5.78;66.31
75146;BME280;63641;46.526;24.612;2024-03-08T23:32:54;97468.06;;;5.77;66.35
75146;BME280;63641;46.526;24.612;2024-03-08T23:35:21;97461.25;;;5.69;66.55
75146;BME280;63641;46.526;24.612;2024-03-08T23:37:48;97459.47;;;5.75;66.61
75146;BME280;63641;46.526;24.612;2024-03-08T23:40:19;97461.56;;;5.73;66.67
75146;BME280;63641;46.526;24.612;2024-03-08T23:42:47;97466.13;;;5.72;66.70
75146;BME280;63641;46.526;24.612;2024-03-08T23:45:15;97475.00;;;5.73;66.68
75146;BME280;63641;46.526;24.612;2024-03-08T23:47:51;97460.78;;;5.72;66.91
75146;BME280;63641;46.526;24.612;2024-03-08T23:50:29;97460.72;;;5.67;66.90
75146;BME280;63641;46.526;24.612;2024-03-08T23:53:02;97462.31;;;5.68;67.06
75146;BME280;63641;46.526;24.612;2024-03-08T23:55:30;97468.50;;;5.69;67.30
75146;BME280;63641;46.526;24.612;2024-03-08T23:58:01;97449.06;;;5.62;67.11
